createdAt,value
2019-01-10T00:01:07.311Z,-5.78
2019-01-10T00:03:41.298Z,-5.67
2019-01-10T00:06:14.167Z,-5.75
2019-01-10T00:08:47.469Z,-5.58
2019-01-10T00:11:20.759Z,-5.58
2019-01-10T00:13:55.804Z,-5.56
2019-01-10T00:16:28.990Z,-5.53
2019-01-10T00:19:02.069Z,-5.44
2019-01-10T00:21:39.989Z,-5.45
2019-01-10T00:24:13.323Z,-5.38
2019-01-10T00:26:46.549Z,-5.20
2019-01-10T00:29:20.712Z,-5.22
2019-01-10T00:31:53.848Z,-5.08
2019-01-10T00:34:29.984Z,-5.03
2019-01-10T00:37:02.524Z,-5.16
2019-01-10T00:39:35.701Z,-4.96
2019-01-10T00:42:08.651Z,-4.84
2019-01-10T00:44:41.790Z,-4.74
2019-01-10T00:47:14.955Z,-4.57
2019-01-10T00:49:48.175Z,-4.62
2019-01-10T00:52:21.274Z,-4.76
2019-01-10T00:54:56.200Z,-4.52
2019-01-10T00:57:30.255Z,-4.53
2019-01-10T01:00:06.220Z,-4.44
2019-01-10T01:02:39.359Z,-4.32
2019-01-10T01:05:14.871Z,-4.53
2019-01-10T01:07:48.896Z,-4.20
2019-01-10T01:10:27.846Z,-4.20
2019-01-10T01:13:00.975Z,-4.49
2019-01-10T01:15:34.360Z,-4.44
2019-01-10T01:18:07.562Z,-4.34
2019-01-10T01:20:40.549Z,-4.19
2019-01-10T01:23:13.731Z,-4.19
2019-01-10T01:25:46.735Z,-4.25
2019-01-10T01:28:19.873Z,-4.27
2019-01-10T01:30:53.000Z,-4.28
2019-01-10T01:33:26.177Z,-4.46
2019-01-10T01:35:59.137Z,-4.47
2019-01-10T01:38:32.405Z,-4.41
2019-01-10T01:41:05.663Z,-4.54
2019-01-10T01:43:39.953Z,-4.34
2019-01-10T01:46:13.223Z,-4.21
2019-01-10T01:48:46.306Z,-4.19
2019-01-10T01:51:19.524Z,-4.16
2019-01-10T01:53:54.144Z,-3.87
2019-01-10T01:56:27.435Z,-4.09
2019-01-10T01:59:00.617Z,-4.15
2019-01-10T02:01:33.697Z,-4.01
2019-01-10T02:04:26.157Z,-3.87
2019-01-10T02:07:00.404Z,-3.67
2019-01-10T02:09:33.502Z,-3.66
2019-01-10T02:12:07.785Z,-3.62
2019-01-10T02:14:40.865Z,-3.07
2019-01-10T02:17:13.853Z,-2.38
2019-01-10T02:19:47.070Z,-2.72
2019-01-10T02:22:22.780Z,-2.66
2019-01-10T02:24:55.975Z,-2.63
2019-01-10T02:27:30.166Z,-3.04
2019-01-10T02:30:05.442Z,-3.26
2019-01-10T02:32:40.942Z,-2.97
2019-01-10T02:35:15.659Z,-2.68
2019-01-10T02:37:50.659Z,-2.62
2019-01-10T02:40:24.692Z,-2.52
2019-01-10T02:42:57.940Z,-2.23
2019-01-10T02:45:30.874Z,-2.44
2019-01-10T02:48:05.237Z,-2.17
2019-01-10T02:50:38.356Z,-2.12
2019-01-10T02:53:11.584Z,-2.07
2019-01-10T02:55:51.426Z,-2.13
2019-01-10T02:58:24.519Z,-1.79
2019-01-10T03:00:57.451Z,-1.93
2019-01-10T03:03:30.799Z,-1.92
2019-01-10T03:06:08.803Z,-1.92
2019-01-10T03:08:42.476Z,-1.94
2019-01-10T03:11:15.593Z,-2.36
2019-01-10T03:13:49.008Z,-2.22
2019-01-10T03:16:23.586Z,-1.72
2019-01-10T03:19:03.515Z,-1.46
2019-01-10T03:21:40.429Z,-1.38
2019-01-10T03:24:14.823Z,-2.07
2019-01-10T03:26:47.928Z,-1.67
2019-01-10T03:29:21.190Z,-1.32
2019-01-10T03:31:54.315Z,-1.13
2019-01-10T03:34:27.714Z,-0.97
2019-01-10T03:37:01.555Z,-1.09
2019-01-10T03:39:34.545Z,-1.08
2019-01-10T03:42:12.508Z,-0.82
2019-01-10T03:44:46.414Z,-0.98
2019-01-10T03:47:24.871Z,-0.95
2019-01-10T03:49:58.612Z,-0.86
2019-01-10T03:52:32.563Z,-1.08
2019-01-10T03:55:10.893Z,-1.09
2019-01-10T03:57:44.081Z,-1.04
2019-01-10T04:00:23.025Z,-1.17
2019-01-10T04:02:57.296Z,-1.23
2019-01-10T04:05:31.158Z,-1.20
2019-01-10T04:08:06.248Z,-1.06
2019-01-10T04:10:42.515Z,-1.24
2019-01-10T04:13:16.073Z,-1.00
2019-01-10T04:15:56.583Z,-1.07
2019-01-10T04:18:30.849Z,-1.09
2019-01-10T04:21:16.662Z,-0.97
2019-01-10T04:23:42.273Z,-1.06
2019-01-10T04:26:15.395Z,-0.84
2019-01-10T04:28:48.646Z,-0.89
2019-01-10T04:31:21.939Z,-0.74
2019-01-10T04:33:56.596Z,-0.45
2019-01-10T04:36:31.349Z,-0.47
2019-01-10T04:39:05.579Z,-0.49
2019-01-10T04:41:39.534Z,-0.41
2019-01-10T04:44:13.702Z,-0.72
2019-01-10T04:46:46.580Z,-0.67
2019-01-10T04:49:19.816Z,-0.85
2019-01-10T04:51:53.236Z,-0.85
2019-01-10T04:54:28.364Z,-0.79
2019-01-10T04:57:04.587Z,-0.69
2019-01-10T04:59:37.364Z,-0.82
2019-01-10T05:02:18.333Z,-0.94
2019-01-10T05:04:44.873Z,-0.97
2019-01-10T05:07:21.346Z,-0.75
2019-01-10T05:09:54.583Z,-0.79
2019-01-10T05:12:29.128Z,-0.86
2019-01-10T05:15:02.166Z,-0.83
2019-01-10T05:17:35.375Z,-0.85
2019-01-10T05:20:16.606Z,-0.78
2019-01-10T05:22:50.269Z,-1.00
2019-01-10T05:25:24.292Z,-0.78
2019-01-10T05:28:02.043Z,-0.65
2019-01-10T05:30:36.607Z,-0.58
2019-01-10T05:33:09.766Z,-0.65
2019-01-10T05:35:43.024Z,-0.49
2019-01-10T05:38:16.623Z,-0.71
2019-01-10T05:40:49.621Z,-0.78
2019-01-10T05:43:23.591Z,-0.95
2019-01-10T05:45:58.580Z,-0.78
2019-01-10T05:48:31.932Z,-0.63
2019-01-10T05:51:05.204Z,-0.68
2019-01-10T05:53:38.338Z,-0.65
2019-01-10T05:56:15.612Z,-0.78
2019-01-10T05:58:46.884Z,-0.68
2019-01-10T06:01:20.290Z,-0.80
2019-01-10T06:03:53.793Z,-0.65
2019-01-10T06:06:26.991Z,-0.77
2019-01-10T06:09:01.239Z,-0.78
2019-01-10T06:11:34.757Z,-0.60
2019-01-10T06:14:09.550Z,-0.69
2019-01-10T06:16:50.250Z,-0.82
2019-01-10T06:19:26.994Z,-0.74
2019-01-10T06:21:57.823Z,-0.72
2019-01-10T06:24:31.935Z,-0.64
2019-01-10T06:27:05.116Z,-0.78
2019-01-10T06:29:38.327Z,-0.84
2019-01-10T06:32:11.401Z,-0.77
2019-01-10T06:34:45.306Z,-0.71
2019-01-10T06:37:18.837Z,-0.68
2019-01-10T06:39:52.035Z,-0.70
2019-01-10T06:42:25.358Z,-0.79
2019-01-10T06:44:58.358Z,-0.86
2019-01-10T06:47:31.447Z,-0.98
2019-01-10T06:50:05.726Z,-0.98
2019-01-10T06:52:39.141Z,-1.05
2019-01-10T06:55:13.125Z,-1.08
2019-01-10T06:57:49.427Z,-1.00
2019-01-10T07:00:23.920Z,-0.94
2019-01-10T07:02:56.928Z,-1.06
2019-01-10T07:05:30.068Z,-1.06
2019-01-10T07:08:03.288Z,-1.11
2019-01-10T07:10:37.111Z,-1.08
2019-01-10T07:13:10.226Z,-1.02
2019-01-10T07:15:44.542Z,-1.07
2019-01-10T07:18:17.683Z,-1.18
2019-01-10T07:20:52.804Z,-1.20
2019-01-10T07:23:26.908Z,-1.15
2019-01-10T07:26:01.737Z,-1.33
2019-01-10T07:28:38.053Z,-1.39
2019-01-10T07:31:12.983Z,-1.26
2019-01-10T07:33:46.712Z,-1.38
2019-01-10T07:36:22.866Z,-1.36
2019-01-10T07:38:58.159Z,-1.42
2019-01-10T07:41:37.292Z,-1.35
2019-01-10T07:44:13.327Z,-1.37
2019-01-10T07:46:53.423Z,-1.38
2019-01-10T07:49:32.293Z,-1.50
2019-01-10T07:52:06.824Z,-1.57
2019-01-10T07:54:42.560Z,-1.60
2019-01-10T07:57:17.518Z,-1.66
2019-01-10T07:59:51.537Z,-1.62
2019-01-10T08:02:25.160Z,-1.66
2019-01-10T08:05:00.043Z,-1.73
2019-01-10T08:07:33.666Z,-1.72
2019-01-10T08:10:11.076Z,-1.81
2019-01-10T08:12:46.706Z,-1.86
2019-01-10T08:15:22.411Z,-1.83
2019-01-10T08:17:56.798Z,-1.82
2019-01-10T08:20:31.864Z,-1.86
2019-01-10T08:23:05.306Z,-1.83
2019-01-10T08:25:38.920Z,-1.88
2019-01-10T08:28:13.135Z,-1.88
2019-01-10T08:30:48.253Z,-1.97
2019-01-10T08:33:22.170Z,-2.16
2019-01-10T08:35:55.804Z,-2.23
2019-01-10T08:38:29.889Z,-2.31
2019-01-10T08:41:03.621Z,-2.35
2019-01-10T08:43:36.842Z,-2.30
2019-01-10T08:46:10.499Z,-2.37
2019-01-10T08:48:43.842Z,-2.42
2019-01-10T08:51:17.125Z,-2.34
2019-01-10T08:53:54.064Z,-2.45
2019-01-10T08:56:24.988Z,-2.48
2019-01-10T08:58:58.223Z,-2.45
2019-01-10T09:01:32.638Z,-2.48
2019-01-10T09:04:06.022Z,-2.52
2019-01-10T09:06:39.148Z,-2.66
2019-01-10T09:09:12.404Z,-2.71
2019-01-10T09:11:45.663Z,-2.77
2019-01-10T09:14:20.006Z,-2.64
2019-01-10T09:16:58.775Z,-2.73
2019-01-10T09:19:32.353Z,-2.86
2019-01-10T09:22:06.345Z,-3.06
2019-01-10T09:24:39.860Z,-3.09
2019-01-10T09:27:14.763Z,-3.15
2019-01-10T09:29:50.183Z,-3.24
2019-01-10T09:32:24.396Z,-3.26
2019-01-10T09:34:58.711Z,-3.31
2019-01-10T09:37:34.309Z,-3.40
2019-01-10T09:40:12.238Z,-3.50
2019-01-10T09:42:49.340Z,-3.51
2019-01-10T09:45:25.852Z,-3.49
2019-01-10T09:48:00.173Z,-3.62
2019-01-10T09:50:37.500Z,-3.71
2019-01-10T09:53:11.980Z,-3.78
2019-01-10T09:55:51.615Z,-3.79
2019-01-10T09:58:26.585Z,-3.87
2019-01-10T10:01:01.718Z,-4.02
2019-01-10T10:03:38.493Z,-4.17
2019-01-10T10:06:14.586Z,-4.16
2019-01-10T10:08:49.747Z,-4.15
2019-01-10T10:11:33.862Z,-4.25
2019-01-10T10:14:01.429Z,-4.27
2019-01-10T10:16:34.961Z,-4.31
2019-01-10T10:19:10.967Z,-4.37
2019-01-10T10:21:45.802Z,-4.45
2019-01-10T10:24:21.473Z,-4.32
2019-01-10T10:26:56.207Z,-4.33
2019-01-10T10:29:31.003Z,-4.35
2019-01-10T10:32:05.666Z,-4.45
2019-01-10T10:34:39.622Z,-4.50
2019-01-10T10:37:14.126Z,-4.61
2019-01-10T10:39:50.738Z,-4.71
2019-01-10T10:42:27.510Z,-4.71
2019-01-10T10:45:03.205Z,-4.72
2019-01-10T10:47:37.436Z,-4.75
2019-01-10T10:50:14.210Z,-4.64
2019-01-10T10:52:48.249Z,-4.67
2019-01-10T10:55:22.447Z,-4.77
2019-01-10T10:57:57.881Z,-4.75
2019-01-10T11:00:33.319Z,-4.88
2019-01-10T11:03:09.193Z,-4.95
2019-01-10T11:05:43.159Z,-4.90
2019-01-10T11:08:17.492Z,-4.96
2019-01-10T11:10:53.188Z,-5.07
2019-01-10T11:13:27.142Z,-5.24
2019-01-10T11:16:10.098Z,-5.29
2019-01-10T11:18:36.486Z,-5.31
2019-01-10T11:21:10.831Z,-5.37
2019-01-10T11:23:45.277Z,-5.47
2019-01-10T11:26:20.622Z,-5.48
2019-01-10T11:28:55.313Z,-5.59
2019-01-10T11:31:32.409Z,-5.49
2019-01-10T11:34:06.820Z,-5.60
2019-01-10T11:36:41.084Z,-5.54
2019-01-10T11:39:14.968Z,-5.64
2019-01-10T11:41:50.202Z,-5.72
2019-01-10T11:44:24.396Z,-5.81
2019-01-10T11:46:58.145Z,-5.80
2019-01-10T11:49:40.353Z,-5.75
2019-01-10T11:52:14.603Z,-5.86
2019-01-10T11:54:50.562Z,-5.84
2019-01-10T11:57:25.374Z,-5.80
2019-01-10T12:00:03.284Z,-5.84
2019-01-10T12:02:36.858Z,-5.85
2019-01-10T12:05:12.559Z,-5.93
2019-01-10T12:08:01.058Z,-5.97
2019-01-10T12:10:39.715Z,-6.04
2019-01-10T12:13:17.535Z,-5.96
2019-01-10T12:15:53.540Z,-5.92
2019-01-10T12:18:31.228Z,-6.05
2019-01-10T12:21:57.475Z,-6.18
2019-01-10T12:24:33.829Z,-6.13
2019-01-10T12:31:27.638Z,-6.26
2019-01-10T12:33:03.678Z,-6.26
2019-01-10T12:35:41.103Z,-6.39
2019-01-10T12:38:17.352Z,-6.51
2019-01-10T12:40:53.769Z,-6.41
2019-01-10T12:43:47.897Z,-6.44
2019-01-10T12:46:23.356Z,-6.44
2019-01-10T12:48:58.030Z,-6.50
2019-01-10T12:51:32.772Z,-6.51
2019-01-10T12:54:10.031Z,-6.60
2019-01-10T12:56:44.302Z,-6.60
2019-01-10T12:59:21.041Z,-6.66
2019-01-10T13:01:55.648Z,-6.74
2019-01-10T13:04:30.503Z,-6.77
2019-01-10T13:07:05.255Z,-6.85
2019-01-10T13:09:40.025Z,-6.80
2019-01-10T13:12:15.706Z,-6.94
2019-01-10T13:14:52.156Z,-6.85
2019-01-10T13:17:28.534Z,-6.82
2019-01-10T13:20:04.943Z,-6.82
2019-01-10T13:22:38.865Z,-6.86
2019-01-10T13:25:20.810Z,-6.85
2019-01-10T13:27:57.095Z,-6.91
2019-01-10T13:30:30.232Z,-7.00
2019-01-10T13:33:04.515Z,-6.93
2019-01-10T13:35:38.412Z,-7.04
2019-01-10T13:38:12.870Z,-7.15
2019-01-10T13:40:48.770Z,-7.10
2019-01-10T13:43:25.962Z,-6.96
2019-01-10T13:46:00.325Z,-7.09
2019-01-10T13:48:34.485Z,-7.24
2019-01-10T13:51:08.725Z,-7.28
2019-01-10T13:53:42.898Z,-7.31
2019-01-10T13:56:18.769Z,-7.18
2019-01-10T13:58:55.087Z,-7.14
2019-01-10T14:01:29.293Z,-7.20
2019-01-10T14:04:03.102Z,-7.15
2019-01-10T14:06:38.095Z,-7.15
2019-01-10T14:09:13.427Z,-7.27
2019-01-10T14:11:47.672Z,-7.25
2019-01-10T14:14:21.363Z,-7.36
2019-01-10T14:17:01.453Z,-7.28
2019-01-10T14:19:33.109Z,-7.31
2019-01-10T14:22:07.429Z,-7.30
2019-01-10T14:24:41.264Z,-7.27
2019-01-10T14:27:18.457Z,-7.34
2019-01-10T14:29:52.489Z,-7.46
2019-01-10T14:32:27.523Z,-7.49
2019-01-10T14:35:01.870Z,-7.35
2019-01-10T14:37:36.298Z,-7.54
2019-01-10T14:40:12.379Z,-7.62
2019-01-10T14:42:46.428Z,-7.62
2019-01-10T14:45:23.936Z,-7.57
2019-01-10T14:48:01.833Z,-7.52
2019-01-10T14:50:42.497Z,-7.55
2019-01-10T14:53:18.159Z,-7.56
2019-01-10T14:55:52.168Z,-7.70
2019-01-10T14:58:26.435Z,-7.57
2019-01-10T15:01:02.027Z,-7.73
2019-01-10T15:03:35.834Z,-7.74
2019-01-10T15:06:09.740Z,-7.78
2019-01-10T15:08:43.528Z,-7.65
2019-01-10T15:11:19.755Z,-7.74
2019-01-10T15:13:52.878Z,-7.71
2019-01-10T15:16:26.472Z,-7.74
2019-01-10T15:18:59.832Z,-7.80
2019-01-10T15:21:33.077Z,-7.93
2019-01-10T15:24:09.731Z,-7.95
2019-01-10T15:26:43.319Z,-8.04
2019-01-10T15:29:16.570Z,-8.03
2019-01-10T15:31:49.683Z,-8.02
2019-01-10T15:34:22.905Z,-8.04
2019-01-10T15:36:56.203Z,-8.13
2019-01-10T15:39:30.414Z,-8.15
2019-01-10T15:42:03.746Z,-8.30
2019-01-10T15:44:36.939Z,-8.44
2019-01-10T15:47:10.451Z,-8.43
2019-01-10T15:49:43.399Z,-8.49
2019-01-10T15:52:16.479Z,-8.42
2019-01-10T15:54:49.427Z,-8.39
2019-01-10T15:57:22.448Z,-8.36
2019-01-10T15:59:56.467Z,-8.35
2019-01-10T16:02:29.569Z,-8.26
2019-01-10T16:05:04.179Z,-8.35
2019-01-10T16:07:36.954Z,-8.39
2019-01-10T16:10:13.173Z,-8.46
2019-01-10T16:12:46.304Z,-8.46
2019-01-10T16:15:21.784Z,-8.37
2019-01-10T16:17:55.534Z,-8.23
2019-01-10T16:20:28.498Z,-8.28
2019-01-10T16:23:01.665Z,-8.27
2019-01-10T16:25:34.914Z,-8.37
2019-01-10T16:28:08.236Z,-8.36
2019-01-10T16:30:41.211Z,-8.33
2019-01-10T16:33:14.640Z,-8.34
2019-01-10T16:35:47.805Z,-8.36
2019-01-10T16:38:20.991Z,-8.41
2019-01-10T16:40:53.806Z,-8.48
2019-01-10T16:43:26.847Z,-8.44
2019-01-10T16:46:03.057Z,-8.48
2019-01-10T16:48:36.361Z,-8.49
2019-01-10T16:51:09.580Z,-8.60
2019-01-10T16:53:42.730Z,-8.55
2019-01-10T16:56:16.256Z,-8.64
2019-01-10T16:58:49.424Z,-8.75
2019-01-10T17:01:23.596Z,-8.91
2019-01-10T17:03:56.430Z,-8.92
2019-01-10T17:06:29.459Z,-8.89
2019-01-10T17:09:02.507Z,-8.91
2019-01-10T17:11:35.586Z,-8.86
2019-01-10T17:14:09.856Z,-8.95
2019-01-10T17:16:42.843Z,-9.04
2019-01-10T17:19:16.186Z,-9.03
2019-01-10T17:21:49.532Z,-8.91
2019-01-10T17:24:22.695Z,-9.04
2019-01-10T17:26:56.611Z,-8.99
2019-01-10T17:29:31.858Z,-8.96
2019-01-10T17:32:05.332Z,-9.25
2019-01-10T17:34:39.530Z,-9.31
2019-01-10T17:37:12.699Z,-9.41
2019-01-10T17:39:53.182Z,-9.28
2019-01-10T17:42:26.100Z,-9.40
2019-01-10T17:44:58.830Z,-9.47
2019-01-10T17:47:32.904Z,-9.32
2019-01-10T17:50:08.615Z,-9.41
2019-01-10T17:52:41.545Z,-9.58
2019-01-10T17:55:15.235Z,-9.54
2019-01-10T17:58:10.702Z,-9.42
2019-01-10T18:00:44.135Z,-9.25
2019-01-10T18:03:17.163Z,-9.48
2019-01-10T18:05:50.379Z,-9.54
2019-01-10T18:08:24.988Z,-9.56
2019-01-10T18:10:58.454Z,-9.63
2019-01-10T18:13:31.388Z,-9.62
2019-01-10T18:16:04.524Z,-9.51
2019-01-10T18:18:56.982Z,-9.56
2019-01-10T18:21:31.254Z,-9.71
2019-01-10T18:24:04.830Z,-9.75
2019-01-10T18:26:39.274Z,-9.79
2019-01-10T18:29:12.404Z,-9.69
2019-01-10T18:31:52.901Z,-9.56
2019-01-10T18:34:26.091Z,-9.82
2019-01-10T18:36:59.311Z,-9.72
2019-01-10T18:39:32.527Z,-9.68
2019-01-10T18:42:05.832Z,-9.86
2019-01-10T18:44:39.149Z,-9.78
2019-01-10T18:47:13.202Z,-9.86
2019-01-10T18:49:46.030Z,-9.80
2019-01-10T18:52:19.251Z,-9.87
2019-01-10T18:54:59.992Z,-10.01
2019-01-10T18:57:29.312Z,-10.03
2019-01-10T19:00:23.176Z,-10.05
2019-01-10T19:02:56.564Z,-10.10
2019-01-10T19:05:29.700Z,-10.18
2019-01-10T19:08:02.870Z,-10.12
2019-01-10T19:10:35.980Z,-10.15
2019-01-10T19:13:08.970Z,-10.12
2019-01-10T19:15:50.094Z,-10.05
2019-01-10T19:18:23.286Z,-10.19
2019-01-10T19:20:56.330Z,-10.17
2019-01-10T19:23:30.568Z,-10.22
2019-01-10T19:26:05.156Z,-10.22
2019-01-10T19:28:38.210Z,-10.20
2019-01-10T19:31:11.433Z,-10.24
2019-01-10T19:33:44.704Z,-10.50
2019-01-10T19:36:17.898Z,-10.48
2019-01-10T19:38:51.269Z,-10.54
2019-01-10T19:41:25.421Z,-10.57
2019-01-10T19:43:58.531Z,-10.63
2019-01-10T19:46:31.468Z,-10.40
2019-01-10T19:49:04.397Z,-10.31
2019-01-10T19:51:37.538Z,-10.28
2019-01-10T19:54:10.695Z,-10.24
2019-01-10T19:56:43.930Z,-10.24
2019-01-10T19:59:16.995Z,-10.33
2019-01-10T20:01:50.391Z,-10.36
2019-01-10T20:04:23.527Z,-10.30
2019-01-10T20:06:57.017Z,-10.18
2019-01-10T20:09:30.183Z,-10.43
2019-01-10T20:12:07.410Z,-10.36
2019-01-10T20:14:41.467Z,-10.31
2019-01-10T20:17:14.500Z,-10.35
2019-01-10T20:19:48.979Z,-10.45
2019-01-10T20:22:50.203Z,-10.53
2019-01-10T20:25:23.452Z,-10.63
2019-01-10T20:27:57.332Z,-10.58
2019-01-10T20:30:30.696Z,-10.72
2019-01-10T20:33:04.489Z,-10.67
2019-01-10T20:35:37.268Z,-10.63
2019-01-10T20:38:11.458Z,-10.68
2019-01-10T20:40:44.656Z,-10.58
2019-01-10T20:43:18.577Z,-10.57
2019-01-10T20:45:59.404Z,-10.68
2019-01-10T20:48:33.784Z,-10.58
2019-01-10T20:51:07.191Z,-10.37
2019-01-10T20:53:40.423Z,-10.48
2019-01-10T20:56:29.108Z,-10.38
2019-01-10T20:59:02.140Z,-10.46
2019-01-10T21:01:35.201Z,-10.47
2019-01-10T21:04:08.932Z,-10.34
2019-01-10T21:06:44.388Z,-10.34
2019-01-10T21:09:17.737Z,-10.45
2019-01-10T21:11:50.852Z,-10.35
2019-01-10T21:14:24.079Z,-10.39
2019-01-10T21:16:57.158Z,-10.41
2019-01-10T21:19:30.520Z,-10.43
2019-01-10T21:22:03.614Z,-10.62
2019-01-10T21:24:36.498Z,-10.68
2019-01-10T21:27:09.571Z,-10.61
2019-01-10T21:29:50.884Z,-10.64
2019-01-10T21:32:25.163Z,-10.63
2019-01-10T21:34:58.205Z,-10.60
2019-01-10T21:37:31.368Z,-10.45
2019-01-10T21:40:06.516Z,-10.45
2019-01-10T21:42:39.614Z,-10.43
2019-01-10T21:45:17.577Z,-10.25
2019-01-10T21:47:53.858Z,-10.22
2019-01-10T21:50:28.190Z,-10.33
2019-01-10T21:53:02.162Z,-10.52
2019-01-10T21:55:35.464Z,-10.43
2019-01-10T21:58:16.774Z,-10.38
2019-01-10T22:00:50.359Z,-10.40
2019-01-10T22:03:23.340Z,-10.41
2019-01-10T22:09:27.892Z,-10.29
2019-01-10T22:12:02.321Z,-10.32
2019-01-10T22:14:35.121Z,-10.38
2019-01-10T22:17:08.855Z,-10.29
2019-01-10T22:19:43.901Z,-10.40
2019-01-10T22:22:17.149Z,-10.40
2019-01-10T22:25:15.740Z,-10.34
2019-01-10T22:27:51.529Z,-10.34
2019-01-10T22:30:25.527Z,-10.27
2019-01-10T22:33:02.668Z,-10.40
2019-01-10T22:35:38.019Z,-10.38
2019-01-10T22:38:10.576Z,-10.35
2019-01-10T22:40:44.962Z,-10.38
2019-01-10T22:43:18.088Z,-10.40
2019-01-10T22:45:51.263Z,-10.28
2019-01-10T22:48:24.148Z,-10.29
2019-01-10T22:50:56.952Z,-10.33
2019-01-10T22:53:29.764Z,-10.23
2019-01-10T22:56:02.649Z,-10.24
2019-01-10T22:58:52.323Z,-10.28
2019-01-10T23:01:27.246Z,-10.39
2019-01-10T23:04:00.495Z,-10.33
2019-01-10T23:06:33.269Z,-10.38
2019-01-10T23:09:07.839Z,-10.38
2019-01-10T23:11:43.571Z,-10.43
2019-01-10T23:14:17.325Z,-10.39
2019-01-10T23:16:50.246Z,-10.49
2019-01-10T23:19:24.439Z,-10.39
2019-01-10T23:21:58.579Z,-10.37
2019-01-10T23:24:31.544Z,-10.42
2019-01-10T23:27:04.724Z,-10.37
2019-01-10T23:29:37.811Z,-10.44
2019-01-10T23:32:35.817Z,-10.27
2019-01-10T23:35:10.491Z,-10.24
2019-01-10T23:37:44.680Z,-10.15
2019-01-10T23:40:18.532Z,-10.13
2019-01-10T23:43:16.678Z,-10.30
2019-01-10T23:45:49.704Z,-10.30
2019-01-10T23:48:23.573Z,-10.14
2019-01-10T23:50:56.858Z,-10.01
2019-01-10T23:53:29.819Z,-9.97
2019-01-10T23:56:02.444Z,-9.79
2019-01-10T23:58:35.144Z,-9.68
